sensor_id;sensor_type;location;lat;lon;timestamp;P1;durP1;ratioP1;P2;durP2;ratioP2
70078;SDS011;57451;52.496;13.456;2022-07-29T00:00:53;6.93;;;2.90;;
70078;SDS011;57451;52.496;13.456;2022-07-29T00:03:19;8.55;;;3.20;;
70078;SDS011;57451;52.496;13.456;2022-07-29T00:05:45;6.75;;;2.85;;
70078;SDS011;57451;52.496;13.456;2022-07-29T00:08:13;6.50;;;2.90;;
70078;SDS011;57451;52.496;13.456;2022-07-29T00:10:41;5.27;;;2.80;;
70078;SDS011;57451;52.496;13.456;2022-07-29T00:13:07;8.07;;;3.10;;
70078;SDS011;57451;52.496;13.456;2022-07-29T00:15:33;9.35;;;3.03;;
70078;SDS011;57451;52.496;13.456;2022-07-29T00:18:00;7.00;;;3.00;;
70078;SDS011;57451;52.496;13.456;2022-07-29T00:20:26;6.85;;;3.10;;
70078;SDS011;57451;52.496;13.456;2022-07-29T00:22:52;8.20;;;3.07;;
70078;SDS011;57451;52.496;13.456;2022-07-29T00:25:20;6.13;;;3.20;;
70078;SDS011;57451;52.496;13.456;2022-07-29T00:27:46;6.47;;;3.08;;
70078;SDS011;57451;52.496;13.456;2022-07-29T00:30:12;7.40;;;3.20;;
70078;SDS011;57451;52.496;13.456;2022-07-29T00:32:38;11.77;;;3.50;;
70078;SDS011;57451;52.496;13.456;2022-07-29T00:35:05;6.83;;;3.40;;
70078;SDS011;57451;52.496;13.456;2022-07-29T00:37:51;6.93;;;3.20;;
70078;SDS011;57451;52.496;13.456;2022-07-29T00:40:17;9.32;;;3.30;;
70078;SDS011;57451;52.496;13.456;2022-07-29T00:42:45;9.73;;;3.10;;
70078;SDS011;57451;52.496;13.456;2022-07-29T00:45:12;7.95;;;3.55;;
70078;SDS011;57451;52.496;13.456;2022-07-29T00:47:39;7.40;;;3.60;;
70078;SDS011;57451;52.496;13.456;2022-07-29T00:50:06;8.13;;;3.38;;
70078;SDS011;57451;52.496;13.456;2022-07-29T00:52:33;10.20;;;4.30;;
70078;SDS011;57451;52.496;13.456;2022-07-29T00:55:02;7.63;;;3.40;;
70078;SDS011;57451;52.496;13.456;2022-07-29T00:57:28;10.00;;;3.92;;
70078;SDS011;57451;52.496;13.456;2022-07-29T00:59:56;5.93;;;3.30;;
70078;SDS011;57451;52.496;13.456;2022-07-29T01:02:22;12.23;;;4.75;;
70078;SDS011;57451;52.496;13.456;2022-07-29T01:04:48;10.35;;;4.00;;
70078;SDS011;57451;52.496;13.456;2022-07-29T01:07:15;7.32;;;3.33;;
70078;SDS011;57451;52.496;13.456;2022-07-29T01:09:42;6.22;;;3.47;;
70078;SDS011;57451;52.496;13.456;2022-07-29T01:12:10;5.87;;;3.30;;
70078;SDS011;57451;52.496;13.456;2022-07-29T01:14:38;7.03;;;3.38;;
70078;SDS011;57451;52.496;13.456;2022-07-29T01:17:08;7.07;;;3.08;;
70078;SDS011;57451;52.496;13.456;2022-07-29T01:19:44;7.45;;;3.42;;
70078;SDS011;57451;52.496;13.456;2022-07-29T01:22:19;7.60;;;3.30;;
70078;SDS011;57451;52.496;13.456;2022-07-29T01:25:10;6.60;;;3.40;;
70078;SDS011;57451;52.496;13.456;2022-07-29T01:27:49;6.47;;;3.30;;
70078;SDS011;57451;52.496;13.456;2022-07-29T01:30:30;10.13;;;3.47;;
70078;SDS011;57451;52.496;13.456;2022-07-29T01:33:02;6.13;;;3.30;;
70078;SDS011;57451;52.496;13.456;2022-07-29T01:35:32;7.57;;;3.25;;
70078;SDS011;57451;52.496;13.456;2022-07-29T01:38:04;6.53;;;3.03;;
70078;SDS011;57451;52.496;13.456;2022-07-29T01:40:34;7.88;;;3.10;;
70078;SDS011;57451;52.496;13.456;2022-07-29T01:43:06;7.00;;;3.38;;
70078;SDS011;57451;52.496;13.456;2022-07-29T01:45:38;6.15;;;3.20;;
70078;SDS011;57451;52.496;13.456;2022-07-29T01:48:10;7.78;;;3.20;;
70078;SDS011;57451;52.496;13.456;2022-07-29T01:50:40;8.37;;;2.97;;
70078;SDS011;57451;52.496;13.456;2022-07-29T01:53:21;8.82;;;3.40;;
70078;SDS011;57451;52.496;13.456;2022-07-29T01:55:51;6.40;;;3.05;;
70078;SDS011;57451;52.496;13.456;2022-07-29T01:58:18;7.15;;;3.00;;
70078;SDS011;57451;52.496;13.456;2022-07-29T02:00:47;7.53;;;3.22;;
70078;SDS011;57451;52.496;13.456;2022-07-29T02:03:15;7.87;;;3.13;;
70078;SDS011;57451;52.496;13.456;2022-07-29T02:05:43;5.72;;;3.00;;
70078;SDS011;57451;52.496;13.456;2022-07-29T02:08:12;7.75;;;3.25;;
70078;SDS011;57451;52.496;13.456;2022-07-29T02:10:40;6.75;;;2.85;;
70078;SDS011;57451;52.496;13.456;2022-07-29T02:13:09;8.45;;;3.53;;
70078;SDS011;57451;52.496;13.456;2022-07-29T02:15:36;7.23;;;3.20;;
70078;SDS011;57451;52.496;13.456;2022-07-29T02:18:06;6.90;;;3.28;;
70078;SDS011;57451;52.496;13.456;2022-07-29T02:20:34;6.93;;;2.90;;
70078;SDS011;57451;52.496;13.456;2022-07-29T02:23:03;8.40;;;2.97;;
70078;SDS011;57451;52.496;13.456;2022-07-29T02:25:31;6.20;;;3.28;;
70078;SDS011;57451;52.496;13.456;2022-07-29T02:27:57;7.23;;;3.13;;
70078;SDS011;57451;52.496;13.456;2022-07-29T02:30:26;7.43;;;3.20;;
70078;SDS011;57451;52.496;13.456;2022-07-29T02:32:54;7.18;;;2.85;;
70078;SDS011;57451;52.496;13.456;2022-07-29T02:35:22;6.07;;;2.70;;
70078;SDS011;57451;52.496;13.456;2022-07-29T02:37:49;7.78;;;3.30;;
70078;SDS011;57451;52.496;13.456;2022-07-29T02:40:37;6.80;;;3.00;;
70078;SDS011;57451;52.496;13.456;2022-07-29T02:43:05;7.20;;;3.03;;
70078;SDS011;57451;52.496;13.456;2022-07-29T02:45:33;6.57;;;3.40;;
70078;SDS011;57451;52.496;13.456;2022-07-29T02:48:00;6.68;;;2.88;;
70078;SDS011;57451;52.496;13.456;2022-07-29T02:50:37;8.27;;;3.25;;
70078;SDS011;57451;52.496;13.456;2022-07-29T02:53:07;8.07;;;3.17;;
70078;SDS011;57451;52.496;13.456;2022-07-29T02:55:39;7.47;;;2.90;;
70078;SDS011;57451;52.496;13.456;2022-07-29T02:58:12;6.30;;;2.60;;
70078;SDS011;57451;52.496;13.456;2022-07-29T03:00:45;9.13;;;2.92;;
70078;SDS011;57451;52.496;13.456;2022-07-29T03:03:15;6.47;;;3.00;;
70078;SDS011;57451;52.496;13.456;2022-07-29T03:05:44;7.63;;;3.00;;
70078;SDS011;57451;52.496;13.456;2022-07-29T03:08:10;6.78;;;3.13;;
70078;SDS011;57451;52.496;13.456;2022-07-29T03:10:39;9.73;;;3.55;;
70078;SDS011;57451;52.496;13.456;2022-07-29T03:13:08;8.13;;;2.97;;
70078;SDS011;57451;52.496;13.456;2022-07-29T03:15:35;7.30;;;3.20;;
70078;SDS011;57451;52.496;13.456;2022-07-29T03:18:02;7.67;;;2.93;;
70078;SDS011;57451;52.496;13.456;2022-07-29T03:20:29;6.93;;;3.00;;
70078;SDS011;57451;52.496;13.456;2022-07-29T03:22:56;8.13;;;3.20;;
70078;SDS011;57451;52.496;13.456;2022-07-29T03:25:22;6.95;;;2.72;;
70078;SDS011;57451;52.496;13.456;2022-07-29T03:27:49;6.88;;;3.20;;
70078;SDS011;57451;52.496;13.456;2022-07-29T03:30:15;7.93;;;3.00;;
70078;SDS011;57451;52.496;13.456;2022-07-29T03:32:41;6.35;;;3.00;;
70078;SDS011;57451;52.496;13.456;2022-07-29T03:35:08;8.75;;;3.00;;
70078;SDS011;57451;52.496;13.456;2022-07-29T03:37:34;7.68;;;3.42;;
70078;SDS011;57451;52.496;13.456;2022-07-29T03:40:04;6.47;;;2.80;;
70078;SDS011;57451;52.496;13.456;2022-07-29T03:42:35;6.73;;;3.30;;
70078;SDS011;57451;52.496;13.456;2022-07-29T03:45:06;8.48;;;3.25;;
70078;SDS011;57451;52.496;13.456;2022-07-29T03:47:35;7.95;;;3.10;;
70078;SDS011;57451;52.496;13.456;2022-07-29T03:50:08;8.95;;;3.53;;
70078;SDS011;57451;52.496;13.456;2022-07-29T03:52:37;8.38;;;3.13;;
70078;SDS011;57451;52.496;13.456;2022-07-29T03:55:05;6.37;;;2.90;;
70078;SDS011;57451;52.496;13.456;2022-07-29T03:57:32;7.68;;;3.22;;
70078;SDS011;57451;52.496;13.456;2022-07-29T04:00:00;7.78;;;2.92;;
70078;SDS011;57451;52.496;13.456;2022-07-29T04:02:29;7.63;;;3.10;;
70078;SDS011;57451;52.496;13.456;2022-07-29T04:04:57;9.18;;;3.28;;
70078;SDS011;57451;52.496;13.456;2022-07-29T04:07:23;6.43;;;3.00;;
70078;SDS011;57451;52.496;13.456;2022-07-29T04:09:49;7.05;;;3.10;;
70078;SDS011;57451;52.496;13.456;2022-07-29T04:12:16;5.65;;;3.10;;
70078;SDS011;57451;52.496;13.456;2022-07-29T04:14:42;6.53;;;3.00;;
70078;SDS011;57451;52.496;13.456;2022-07-29T04:17:09;5.60;;;2.90;;
70078;SDS011;57451;52.496;13.456;2022-07-29T04:19:35;7.50;;;3.20;;
70078;SDS011;57451;52.496;13.456;2022-07-29T04:22:01;6.15;;;3.30;;
70078;SDS011;57451;52.496;13.456;2022-07-29T04:24:27;7.70;;;3.25;;
70078;SDS011;57451;52.496;13.456;2022-07-29T04:26:54;5.63;;;3.00;;
70078;SDS011;57451;52.496;13.456;2022-07-29T04:29:21;7.80;;;3.22;;
70078;SDS011;57451;52.496;13.456;2022-07-29T04:31:47;7.77;;;3.27;;
70078;SDS011;57451;52.496;13.456;2022-07-29T04:34:14;5.95;;;3.13;;
70078;SDS011;57451;52.496;13.456;2022-07-29T04:36:40;7.43;;;3.17;;
70078;SDS011;57451;52.496;13.456;2022-07-29T04:39:06;6.82;;;3.47;;
70078;SDS011;57451;52.496;13.456;2022-07-29T04:41:32;8.50;;;3.22;;
70078;SDS011;57451;52.496;13.456;2022-07-29T04:43:58;6.70;;;3.03;;
70078;SDS011;57451;52.496;13.456;2022-07-29T04:46:27;7.13;;;3.40;;
70078;SDS011;57451;52.496;13.456;2022-07-29T04:48:53;7.00;;;3.35;;
70078;SDS011;57451;52.496;13.456;2022-07-29T04:51:19;7.20;;;3.15;;
70078;SDS011;57451;52.496;13.456;2022-07-29T04:53:46;7.47;;;3.20;;
70078;SDS011;57451;52.496;13.456;2022-07-29T04:56:12;6.87;;;3.17;;
70078;SDS011;57451;52.496;13.456;2022-07-29T04:58:38;8.13;;;3.83;;
70078;SDS011;57451;52.496;13.456;2022-07-29T05:01:04;7.45;;;3.03;;
70078;SDS011;57451;52.496;13.456;2022-07-29T05:03:31;6.10;;;3.13;;
70078;SDS011;57451;52.496;13.456;2022-07-29T05:05:57;7.88;;;3.35;;
70078;SDS011;57451;52.496;13.456;2022-07-29T05:08:24;8.53;;;3.47;;
70078;SDS011;57451;52.496;13.456;2022-07-29T05:10:50;8.32;;;3.30;;
70078;SDS011;57451;52.496;13.456;2022-07-29T05:13:16;7.05;;;3.30;;
70078;SDS011;57451;52.496;13.456;2022-07-29T05:15:42;7.13;;;3.25;;
70078;SDS011;57451;52.496;13.456;2022-07-29T05:18:08;7.88;;;3.10;;
70078;SDS011;57451;52.496;13.456;2022-07-29T05:20:36;8.17;;;2.93;;
70078;SDS011;57451;52.496;13.456;2022-07-29T05:23:03;9.15;;;3.15;;
70078;SDS011;57451;52.496;13.456;2022-07-29T05:25:29;8.65;;;3.17;;
70078;SDS011;57451;52.496;13.456;2022-07-29T05:27:55;7.72;;;3.03;;
70078;SDS011;57451;52.496;13.456;2022-07-29T05:30:22;9.27;;;3.50;;
70078;SDS011;57451;52.496;13.456;2022-07-29T05:32:48;6.80;;;3.27;;
70078;SDS011;57451;52.496;13.456;2022-07-29T05:35:15;7.57;;;2.92;;
70078;SDS011;57451;52.496;13.456;2022-07-29T05:37:43;11.73;;;3.35;;
70078;SDS011;57451;52.496;13.456;2022-07-29T05:40:09;7.65;;;3.20;;
70078;SDS011;57451;52.496;13.456;2022-07-29T05:42:35;10.35;;;3.38;;
70078;SDS011;57451;52.496;13.456;2022-07-29T05:45:02;8.47;;;2.97;;
70078;SDS011;57451;52.496;13.456;2022-07-29T05:47:28;6.63;;;3.05;;
70078;SDS011;57451;52.496;13.456;2022-07-29T05:49:54;6.45;;;3.05;;
70078;SDS011;57451;52.496;13.456;2022-07-29T05:52:21;7.97;;;2.72;;
70078;SDS011;57451;52.496;13.456;2022-07-29T05:54:48;4.85;;;2.78;;
70078;SDS011;57451;52.496;13.456;2022-07-29T05:57:15;8.53;;;2.90;;
70078;SDS011;57451;52.496;13.456;2022-07-29T05:59:42;6.72;;;2.90;;
70078;SDS011;57451;52.496;13.456;2022-07-29T06:02:08;7.97;;;3.00;;
70078;SDS011;57451;52.496;13.456;2022-07-29T06:04:34;8.93;;;3.00;;
70078;SDS011;57451;52.496;13.456;2022-07-29T06:07:00;5.88;;;2.95;;
70078;SDS011;57451;52.496;13.456;2022-07-29T06:09:27;8.80;;;3.13;;
70078;SDS011;57451;52.496;13.456;2022-07-29T06:11:54;10.13;;;3.05;;
70078;SDS011;57451;52.496;13.456;2022-07-29T06:14:20;7.38;;;3.00;;
70078;SDS011;57451;52.496;13.456;2022-07-29T06:16:47;8.95;;;3.08;;
70078;SDS011;57451;52.496;13.456;2022-07-29T06:19:13;7.05;;;3.03;;
70078;SDS011;57451;52.496;13.456;2022-07-29T06:21:40;7.53;;;3.00;;
70078;SDS011;57451;52.496;13.456;2022-07-29T06:24:07;8.25;;;2.90;;
70078;SDS011;57451;52.496;13.456;2022-07-29T06:26:33;8.88;;;2.80;;
70078;SDS011;57451;52.496;13.456;2022-07-29T06:29:00;9.35;;;3.05;;
70078;SDS011;57451;52.496;13.456;2022-07-29T06:31:27;7.57;;;3.05;;
70078;SDS011;57451;52.496;13.456;2022-07-29T06:33:53;8.93;;;3.40;;
70078;SDS011;57451;52.496;13.456;2022-07-29T06:36:19;9.85;;;3.17;;
70078;SDS011;57451;52.496;13.456;2022-07-29T06:38:45;9.05;;;3.20;;
70078;SDS011;57451;52.496;13.456;2022-07-29T06:41:11;6.25;;;2.58;;
70078;SDS011;57451;52.496;13.456;2022-07-29T06:43:41;10.40;;;3.20;;
70078;SDS011;57451;52.496;13.456;2022-07-29T06:46:11;7.20;;;3.07;;
70078;SDS011;57451;52.496;13.456;2022-07-29T06:48:39;4.68;;;2.80;;
70078;SDS011;57451;52.496;13.456;2022-07-29T06:51:07;6.20;;;2.90;;
70078;SDS011;57451;52.496;13.456;2022-07-29T06:53:34;6.55;;;2.95;;
70078;SDS011;57451;52.496;13.456;2022-07-29T06:56:01;6.88;;;3.00;;
70078;SDS011;57451;52.496;13.456;2022-07-29T06:58:28;7.30;;;2.70;;
70078;SDS011;57451;52.496;13.456;2022-07-29T07:00:55;9.18;;;3.05;;
70078;SDS011;57451;52.496;13.456;2022-07-29T07:03:22;6.47;;;2.80;;
70078;SDS011;57451;52.496;13.456;2022-07-29T07:05:49;8.55;;;2.80;;
70078;SDS011;57451;52.496;13.456;2022-07-29T07:08:17;8.40;;;2.60;;
70078;SDS011;57451;52.496;13.456;2022-07-29T07:10:44;7.17;;;3.00;;
70078;SDS011;57451;52.496;13.456;2022-07-29T07:13:11;7.28;;;2.88;;
70078;SDS011;57451;52.496;13.456;2022-07-29T07:15:37;5.10;;;2.72;;
70078;SDS011;57451;52.496;13.456;2022-07-29T07:18:04;6.88;;;2.45;;
70078;SDS011;57451;52.496;13.456;2022-07-29T07:20:32;6.30;;;2.60;;
70078;SDS011;57451;52.496;13.456;2022-07-29T07:22:59;9.70;;;2.80;;
70078;SDS011;57451;52.496;13.456;2022-07-29T07:25:25;9.07;;;3.15;;
70078;SDS011;57451;52.496;13.456;2022-07-29T07:27:51;7.50;;;2.88;;
70078;SDS011;57451;52.496;13.456;2022-07-29T07:30:18;7.68;;;2.95;;
70078;SDS011;57451;52.496;13.456;2022-07-29T07:32:44;10.90;;;5.88;;
70078;SDS011;57451;52.496;13.456;2022-07-29T07:35:10;5.63;;;2.80;;
70078;SDS011;57451;52.496;13.456;2022-07-29T07:37:38;5.38;;;2.78;;
70078;SDS011;57451;52.496;13.456;2022-07-29T07:40:06;8.50;;;2.88;;
70078;SDS011;57451;52.496;13.456;2022-07-29T07:42:34;6.03;;;2.83;;
70078;SDS011;57451;52.496;13.456;2022-07-29T07:45:00;7.55;;;3.00;;
70078;SDS011;57451;52.496;13.456;2022-07-29T07:47:26;8.37;;;2.70;;
70078;SDS011;57451;52.496;13.456;2022-07-29T07:49:52;5.70;;;2.30;;
70078;SDS011;57451;52.496;13.456;2022-07-29T07:52:19;8.77;;;3.65;;
70078;SDS011;57451;52.496;13.456;2022-07-29T07:54:48;8.68;;;3.25;;
70078;SDS011;57451;52.496;13.456;2022-07-29T07:57:14;6.28;;;3.30;;
70078;SDS011;57451;52.496;13.456;2022-07-29T07:59:41;6.10;;;2.57;;
70078;SDS011;57451;52.496;13.456;2022-07-29T08:02:08;6.40;;;2.88;;
70078;SDS011;57451;52.496;13.456;2022-07-29T08:04:34;6.35;;;2.85;;
70078;SDS011;57451;52.496;13.456;2022-07-29T08:07:02;6.57;;;2.75;;
70078;SDS011;57451;52.496;13.456;2022-07-29T08:09:28;7.35;;;2.38;;
70078;SDS011;57451;52.496;13.456;2022-07-29T08:11:56;7.40;;;2.50;;
70078;SDS011;57451;52.496;13.456;2022-07-29T08:14:23;6.00;;;2.47;;
70078;SDS011;57451;52.496;13.456;2022-07-29T08:16:49;7.25;;;2.58;;
70078;SDS011;57451;52.496;13.456;2022-07-29T08:19:16;7.47;;;2.45;;
70078;SDS011;57451;52.496;13.456;2022-07-29T08:21:43;6.95;;;2.50;;
70078;SDS011;57451;52.496;13.456;2022-07-29T08:24:09;5.60;;;2.60;;
70078;SDS011;57451;52.496;13.456;2022-07-29T08:26:55;9.40;;;2.50;;
70078;SDS011;57451;52.496;13.456;2022-07-29T08:29:22;6.47;;;2.70;;
70078;SDS011;57451;52.496;13.456;2022-07-29T08:31:48;7.75;;;2.50;;
70078;SDS011;57451;52.496;13.456;2022-07-29T08:34:14;5.68;;;2.35;;
70078;SDS011;57451;52.496;13.456;2022-07-29T08:36:40;6.13;;;2.80;;
70078;SDS011;57451;52.496;13.456;2022-07-29T08:39:06;6.32;;;2.70;;
70078;SDS011;57451;52.496;13.456;2022-07-29T08:41:32;6.70;;;2.58;;
70078;SDS011;57451;52.496;13.456;2022-07-29T08:44:00;5.90;;;2.30;;
70078;SDS011;57451;52.496;13.456;2022-07-29T08:46:26;8.77;;;3.00;;
70078;SDS011;57451;52.496;13.456;2022-07-29T08:48:52;7.87;;;2.67;;
70078;SDS011;57451;52.496;13.456;2022-07-29T08:51:21;7.10;;;2.72;;
70078;SDS011;57451;52.496;13.456;2022-07-29T08:53:48;5.18;;;2.50;;
70078;SDS011;57451;52.496;13.456;2022-07-29T08:56:15;6.90;;;2.72;;
70078;SDS011;57451;52.496;13.456;2022-07-29T08:58:43;7.10;;;2.63;;
70078;SDS011;57451;52.496;13.456;2022-07-29T09:01:12;5.43;;;2.57;;
70078;SDS011;57451;52.496;13.456;2022-07-29T09:03:41;10.27;;;2.90;;
70078;SDS011;57451;52.496;13.456;2022-07-29T09:06:11;6.35;;;2.55;;
70078;SDS011;57451;52.496;13.456;2022-07-29T09:08:39;7.68;;;2.60;;
70078;SDS011;57451;52.496;13.456;2022-07-29T09:11:06;8.50;;;2.72;;
70078;SDS011;57451;52.496;13.456;2022-07-29T09:13:33;6.23;;;2.47;;
70078;SDS011;57451;52.496;13.456;2022-07-29T09:15:59;6.45;;;2.30;;
70078;SDS011;57451;52.496;13.456;2022-07-29T09:18:34;6.60;;;2.65;;
70078;SDS011;57451;52.496;13.456;2022-07-29T09:21:02;6.22;;;2.35;;
70078;SDS011;57451;52.496;13.456;2022-07-29T09:24:00;6.03;;;2.40;;
70078;SDS011;57451;52.496;13.456;2022-07-29T09:26:28;6.40;;;2.70;;
70078;SDS011;57451;52.496;13.456;2022-07-29T09:28:55;5.28;;;2.40;;
70078;SDS011;57451;52.496;13.456;2022-07-29T09:31:25;5.45;;;2.38;;
70078;SDS011;57451;52.496;13.456;2022-07-29T09:34:00;6.85;;;2.53;;
70078;SDS011;57451;52.496;13.456;2022-07-29T09:36:26;5.65;;;2.40;;
70078;SDS011;57451;52.496;13.456;2022-07-29T09:38:56;6.10;;;2.70;;
70078;SDS011;57451;52.496;13.456;2022-07-29T09:41:26;7.88;;;2.45;;
70078;SDS011;57451;52.496;13.456;2022-07-29T09:43:54;7.93;;;2.45;;
70078;SDS011;57451;52.496;13.456;2022-07-29T09:46:21;6.38;;;2.30;;
70078;SDS011;57451;52.496;13.456;2022-07-29T09:51:34;6.57;;;2.30;;
70078;SDS011;57451;52.496;13.456;2022-07-29T09:54:00;6.38;;;2.20;;
70078;SDS011;57451;52.496;13.456;2022-07-29T09:56:39;6.10;;;2.10;;
70078;SDS011;57451;52.496;13.456;2022-07-29T09:59:06;7.53;;;2.08;;
70078;SDS011;57451;52.496;13.456;2022-07-29T10:01:32;4.93;;;2.00;;
70078;SDS011;57451;52.496;13.456;2022-07-29T10:04:00;5.77;;;2.30;;
70078;SDS011;57451;52.496;13.456;2022-07-29T10:06:27;5.88;;;2.35;;
70078;SDS011;57451;52.496;13.456;2022-07-29T10:09:02;5.50;;;2.30;;
70078;SDS011;57451;52.496;13.456;2022-07-29T10:11:33;4.40;;;1.90;;
70078;SDS011;57451;52.496;13.456;2022-07-29T10:14:01;9.30;;;2.00;;
70078;SDS011;57451;52.496;13.456;2022-07-29T10:16:29;4.73;;;2.00;;
70078;SDS011;57451;52.496;13.456;2022-07-29T10:18:58;7.60;;;2.20;;
70078;SDS011;57451;52.496;13.456;2022-07-29T10:21:25;4.72;;;2.08;;
70078;SDS011;57451;52.496;13.456;2022-07-29T10:23:52;5.00;;;2.30;;
70078;SDS011;57451;52.496;13.456;2022-07-29T10:26:19;5.32;;;2.10;;
70078;SDS011;57451;52.496;13.456;2022-07-29T10:28:45;5.63;;;2.23;;
70078;SDS011;57451;52.496;13.456;2022-07-29T10:31:14;4.00;;;1.83;;
70078;SDS011;57451;52.496;13.456;2022-07-29T10:33:49;4.20;;;2.00;;
70078;SDS011;57451;52.496;13.456;2022-07-29T10:36:27;5.80;;;2.10;;
70078;SDS011;57451;52.496;13.456;2022-07-29T10:39:08;4.82;;;2.03;;
70078;SDS011;57451;52.496;13.456;2022-07-29T10:44:29;6.55;;;2.40;;
70078;SDS011;57451;52.496;13.456;2022-07-29T10:46:56;7.28;;;2.70;;
70078;SDS011;57451;52.496;13.456;2022-07-29T10:49:23;9.23;;;2.45;;
70078;SDS011;57451;52.496;13.456;2022-07-29T10:54:38;6.80;;;2.40;;
70078;SDS011;57451;52.496;13.456;2022-07-29T10:57:11;5.50;;;2.40;;
70078;SDS011;57451;52.496;13.456;2022-07-29T10:59:41;6.45;;;2.17;;
70078;SDS011;57451;52.496;13.456;2022-07-29T11:05:09;5.20;;;2.05;;
70078;SDS011;57451;52.496;13.456;2022-07-29T11:07:38;4.87;;;2.30;;
70078;SDS011;57451;52.496;13.456;2022-07-29T11:10:25;6.75;;;2.22;;
70078;SDS011;57451;52.496;13.456;2022-07-29T11:12:52;4.90;;;2.28;;
70078;SDS011;57451;52.496;13.456;2022-07-29T11:15:20;4.47;;;2.20;;
70078;SDS011;57451;52.496;13.456;2022-07-29T11:18:05;5.30;;;2.72;;
70078;SDS011;57451;52.496;13.456;2022-07-29T11:20:34;5.57;;;2.33;;
70078;SDS011;57451;52.496;13.456;2022-07-29T11:23:20;5.50;;;2.10;;
70078;SDS011;57451;52.496;13.456;2022-07-29T11:28:48;4.68;;;2.53;;
70078;SDS011;57451;52.496;13.456;2022-07-29T11:31:32;5.25;;;2.67;;
70078;SDS011;57451;52.496;13.456;2022-07-29T11:34:15;6.13;;;2.53;;
70078;SDS011;57451;52.496;13.456;2022-07-29T11:39:43;6.20;;;2.60;;
70078;SDS011;57451;52.496;13.456;2022-07-29T11:45:12;7.57;;;2.60;;
70078;SDS011;57451;52.496;13.456;2022-07-29T11:47:41;6.33;;;2.60;;
70078;SDS011;57451;52.496;13.456;2022-07-29T11:50:14;6.65;;;2.50;;
70078;SDS011;57451;52.496;13.456;2022-07-29T11:52:42;6.53;;;3.00;;
70078;SDS011;57451;52.496;13.456;2022-07-29T11:55:13;8.32;;;2.85;;
70078;SDS011;57451;52.496;13.456;2022-07-29T11:57:49;6.15;;;2.80;;
70078;SDS011;57451;52.496;13.456;2022-07-29T12:00:23;6.77;;;3.47;;
70078;SDS011;57451;52.496;13.456;2022-07-29T12:02:54;5.20;;;2.50;;
70078;SDS011;57451;52.496;13.456;2022-07-29T12:05:30;5.18;;;2.78;;
70078;SDS011;57451;52.496;13.456;2022-07-29T12:08:04;6.78;;;2.85;;
70078;SDS011;57451;52.496;13.456;2022-07-29T12:10:31;7.10;;;3.30;;
70078;SDS011;57451;52.496;13.456;2022-07-29T12:12:59;6.87;;;3.27;;
70078;SDS011;57451;52.496;13.456;2022-07-29T12:15:25;6.50;;;3.08;;
70078;SDS011;57451;52.496;13.456;2022-07-29T12:17:52;6.50;;;3.38;;
70078;SDS011;57451;52.496;13.456;2022-07-29T12:20:22;4.82;;;3.20;;
70078;SDS011;57451;52.496;13.456;2022-07-29T12:22:49;5.28;;;2.88;;
70078;SDS011;57451;52.496;13.456;2022-07-29T12:25:16;8.30;;;3.37;;
70078;SDS011;57451;52.496;13.456;2022-07-29T12:27:44;11.07;;;3.45;;
70078;SDS011;57451;52.496;13.456;2022-07-29T12:30:12;7.38;;;3.40;;
70078;SDS011;57451;52.496;13.456;2022-07-29T12:32:41;6.82;;;3.40;;
70078;SDS011;57451;52.496;13.456;2022-07-29T12:35:09;7.03;;;3.25;;
70078;SDS011;57451;52.496;13.456;2022-07-29T12:37:40;5.63;;;3.00;;
70078;SDS011;57451;52.496;13.456;2022-07-29T12:40:08;6.28;;;3.30;;
70078;SDS011;57451;52.496;13.456;2022-07-29T12:42:35;6.80;;;3.17;;
70078;SDS011;57451;52.496;13.456;2022-07-29T12:45:03;6.47;;;3.20;;
70078;SDS011;57451;52.496;13.456;2022-07-29T12:47:32;6.07;;;3.17;;
70078;SDS011;57451;52.496;13.456;2022-07-29T12:50:08;8.43;;;3.60;;
70078;SDS011;57451;52.496;13.456;2022-07-29T12:52:35;10.55;;;3.90;;
70078;SDS011;57451;52.496;13.456;2022-07-29T12:55:01;12.55;;;4.35;;
70078;SDS011;57451;52.496;13.456;2022-07-29T12:57:28;10.70;;;4.15;;
70078;SDS011;57451;52.496;13.456;2022-07-29T12:59:58;11.25;;;5.03;;
70078;SDS011;57451;52.496;13.456;2022-07-29T13:02:26;10.47;;;4.50;;
70078;SDS011;57451;52.496;13.456;2022-07-29T13:04:56;12.10;;;5.18;;
70078;SDS011;57451;52.496;13.456;2022-07-29T13:07:24;7.82;;;3.75;;
70078;SDS011;57451;52.496;13.456;2022-07-29T13:09:52;9.15;;;3.88;;
70078;SDS011;57451;52.496;13.456;2022-07-29T13:12:19;7.68;;;3.95;;
70078;SDS011;57451;52.496;13.456;2022-07-29T13:14:46;8.13;;;3.70;;
70078;SDS011;57451;52.496;13.456;2022-07-29T13:17:14;5.68;;;3.33;;
70078;SDS011;57451;52.496;13.456;2022-07-29T13:19:42;6.15;;;3.40;;
70078;SDS011;57451;52.496;13.456;2022-07-29T13:22:11;7.97;;;3.60;;
70078;SDS011;57451;52.496;13.456;2022-07-29T13:24:44;9.82;;;4.20;;
70078;SDS011;57451;52.496;13.456;2022-07-29T13:27:14;9.97;;;4.67;;
70078;SDS011;57451;52.496;13.456;2022-07-29T13:29:41;10.18;;;3.60;;
70078;SDS011;57451;52.496;13.456;2022-07-29T13:32:07;7.38;;;3.88;;
70078;SDS011;57451;52.496;13.456;2022-07-29T13:34:33;6.70;;;4.00;;
70078;SDS011;57451;52.496;13.456;2022-07-29T13:36:59;9.80;;;4.15;;
70078;SDS011;57451;52.496;13.456;2022-07-29T13:39:27;5.40;;;3.60;;
70078;SDS011;57451;52.496;13.456;2022-07-29T13:41:53;10.10;;;4.68;;
70078;SDS011;57451;52.496;13.456;2022-07-29T13:44:19;11.43;;;4.55;;
70078;SDS011;57451;52.496;13.456;2022-07-29T13:46:45;7.95;;;4.50;;
70078;SDS011;57451;52.496;13.456;2022-07-29T13:49:11;8.40;;;3.85;;
70078;SDS011;57451;52.496;13.456;2022-07-29T13:51:38;8.47;;;3.80;;
70078;SDS011;57451;52.496;13.456;2022-07-29T13:54:04;6.28;;;3.55;;
70078;SDS011;57451;52.496;13.456;2022-07-29T13:56:32;8.85;;;3.85;;
70078;SDS011;57451;52.496;13.456;2022-07-29T13:58:58;8.70;;;4.43;;
70078;SDS011;57451;52.496;13.456;2022-07-29T14:01:25;7.32;;;3.90;;
70078;SDS011;57451;52.496;13.456;2022-07-29T14:03:52;6.67;;;4.10;;
70078;SDS011;57451;52.496;13.456;2022-07-29T14:06:19;9.30;;;4.03;;
70078;SDS011;57451;52.496;13.456;2022-07-29T14:08:45;9.38;;;4.13;;
70078;SDS011;57451;52.496;13.456;2022-07-29T14:11:11;5.90;;;3.85;;
70078;SDS011;57451;52.496;13.456;2022-07-29T14:13:38;7.65;;;3.60;;
70078;SDS011;57451;52.496;13.456;2022-07-29T14:16:05;6.50;;;3.73;;
70078;SDS011;57451;52.496;13.456;2022-07-29T14:18:32;6.90;;;3.80;;
70078;SDS011;57451;52.496;13.456;2022-07-29T14:20:58;7.32;;;4.20;;
70078;SDS011;57451;52.496;13.456;2022-07-29T14:23:25;8.10;;;4.70;;
70078;SDS011;57451;52.496;13.456;2022-07-29T14:25:51;6.93;;;3.90;;
70078;SDS011;57451;52.496;13.456;2022-07-29T14:28:17;6.87;;;3.57;;
70078;SDS011;57451;52.496;13.456;2022-07-29T14:30:44;5.43;;;3.22;;
70078;SDS011;57451;52.496;13.456;2022-07-29T14:33:11;6.78;;;3.85;;
70078;SDS011;57451;52.496;13.456;2022-07-29T14:35:37;6.22;;;3.53;;
70078;SDS011;57451;52.496;13.456;2022-07-29T14:38:03;6.45;;;3.50;;
70078;SDS011;57451;52.496;13.456;2022-07-29T14:40:30;7.73;;;4.00;;
70078;SDS011;57451;52.496;13.456;2022-07-29T14:42:56;5.07;;;3.70;;
70078;SDS011;57451;52.496;13.456;2022-07-29T14:45:22;5.45;;;3.60;;
70078;SDS011;57451;52.496;13.456;2022-07-29T14:47:50;5.88;;;3.78;;
70078;SDS011;57451;52.496;13.456;2022-07-29T14:50:16;7.85;;;4.30;;
70078;SDS011;57451;52.496;13.456;2022-07-29T14:52:43;6.23;;;3.87;;
70078;SDS011;57451;52.496;13.456;2022-07-29T14:55:09;8.05;;;3.85;;
70078;SDS011;57451;52.496;13.456;2022-07-29T14:57:36;7.28;;;4.30;;
70078;SDS011;57451;52.496;13.456;2022-07-29T15:00:02;6.25;;;3.53;;